sensor_id;sensor_type;location;lat;lon;timestamp;pressure;altitude;pressure_sealevel;temperature;humidity
65384;BME280;51986;52.788;41.368;2022-11-23T00:01:27;98049.00;;;4.82;76.53
65384;BME280;51986;52.788;41.368;2022-11-23T00:03:57;98022.59;;;4.70;76.61
65384;BME280;51986;52.788;41.368;2022-11-23T00:06:24;98034.50;;;4.78;75.91
65384;BME280;51986;52.788;41.368;2022-11-23T00:08:52;98045.66;;;4.82;76.66
65384;BME280;51986;52.788;41.368;2022-11-23T00:11:21;98038.94;;;4.81;76.52
65384;BME280;51986;52.788;41.368;2022-11-23T00:13:48;98018.88;;;4.67;76.32
65384;BME280;51986;52.788;41.368;2022-11-23T00:16:21;98021.38;;;4.85;76.69
65384;BME280;51986;52.788;41.368;2022-11-23T00:18:51;98027.72;;;4.87;76.51
65384;BME280;51986;52.788;41.368;2022-11-23T00:21:19;98036.31;;;4.88;76.34
65384;BME280;51986;52.788;41.368;2022-11-23T00:23:47;98024.00;;;4.88;76.24
65384;BME280;51986;52.788;41.368;2022-11-23T00:26:15;98012.00;;;4.95;76.07
65384;BME280;51986;52.788;41.368;2022-11-23T00:28:43;98004.44;;;5.07;75.40
65384;BME280;51986;52.788;41.368;2022-11-23T00:31:12;97983.59;;;4.97;75.55
65384;BME280;51986;52.788;41.368;2022-11-23T00:33:42;97995.56;;;4.98;76.34
65384;BME280;51986;52.788;41.368;2022-11-23T00:36:14;97990.25;;;5.08;76.21
65384;BME280;51986;52.788;41.368;2022-11-23T00:38:42;97990.94;;;5.16;75.39
65384;BME280;51986;52.788;41.368;2022-11-23T00:41:13;97991.56;;;5.27;74.96
65384;BME280;51986;52.788;41.368;2022-11-23T00:43:41;97974.47;;;5.19;75.12
65384;BME280;51986;52.788;41.368;2022-11-23T00:46:15;97981.53;;;5.22;75.66
65384;BME280;51986;52.788;41.368;2022-11-23T00:48:44;97992.25;;;5.35;74.64
65384;BME280;51986;52.788;41.368;2022-11-23T00:51:14;97973.53;;;5.40;75.04
65384;BME280;51986;52.788;41.368;2022-11-23T00:53:42;97954.56;;;5.32;74.40
65384;BME280;51986;52.788;41.368;2022-11-23T00:56:11;97948.88;;;5.41;74.49
65384;BME280;51986;52.788;41.368;2022-11-23T00:58:38;97936.28;;;5.29;75.41
65384;BME280;51986;52.788;41.368;2022-11-23T01:01:10;97931.31;;;5.41;74.36
65384;BME280;51986;52.788;41.368;2022-11-23T01:03:40;97952.53;;;5.47;74.35
65384;BME280;51986;52.788;41.368;2022-11-23T01:06:10;97950.63;;;5.51;74.49
65384;BME280;51986;52.788;41.368;2022-11-23T01:08:38;97928.59;;;5.49;74.47
65384;BME280;51986;52.788;41.368;2022-11-23T01:11:09;97930.19;;;5.39;74.70
65384;BME280;51986;52.788;41.368;2022-11-23T01:13:37;97937.66;;;5.40;74.68
65384;BME280;51986;52.788;41.368;2022-11-23T01:16:26;97927.34;;;5.26;75.12
65384;BME280;51986;52.788;41.368;2022-11-23T01:18:55;97917.53;;;5.37;74.85
65384;BME280;51986;52.788;41.368;2022-11-23T01:21:23;97919.72;;;5.39;74.52
65384;BME280;51986;52.788;41.368;2022-11-23T01:23:52;97908.72;;;5.21;75.33
65384;BME280;51986;52.788;41.368;2022-11-23T01:26:19;97894.97;;;5.13;76.03
65384;BME280;51986;52.788;41.368;2022-11-23T01:28:46;97901.22;;;5.26;75.65
65384;BME280;51986;52.788;41.368;2022-11-23T01:31:19;97893.13;;;5.10;76.72
65384;BME280;51986;52.788;41.368;2022-11-23T01:33:47;97896.31;;;5.28;75.50
65384;BME280;51986;52.788;41.368;2022-11-23T01:36:16;97878.72;;;4.95;76.45
65384;BME280;51986;52.788;41.368;2022-11-23T01:38:44;97900.75;;;4.93;77.16
65384;BME280;51986;52.788;41.368;2022-11-23T01:41:19;97871.56;;;5.02;76.47
65384;BME280;51986;52.788;41.368;2022-11-23T01:43:47;97881.09;;;5.19;75.90
65384;BME280;51986;52.788;41.368;2022-11-23T01:46:14;97895.28;;;5.22;76.14
65384;BME280;51986;52.788;41.368;2022-11-23T01:49:03;97862.34;;;5.28;75.95
65384;BME280;51986;52.788;41.368;2022-11-23T01:51:38;97893.97;;;5.00;76.32
65384;BME280;51986;52.788;41.368;2022-11-23T01:54:20;97898.31;;;5.17;76.51
65384;BME280;51986;52.788;41.368;2022-11-23T01:56:55;97883.34;;;5.21;76.11
65384;BME280;51986;52.788;41.368;2022-11-23T01:59:25;97891.84;;;5.25;76.30
65384;BME280;51986;52.788;41.368;2022-11-23T02:01:54;97887.72;;;5.31;75.66
65384;BME280;51986;52.788;41.368;2022-11-23T02:04:28;97888.56;;;5.21;75.69
65384;BME280;51986;52.788;41.368;2022-11-23T02:06:56;97881.47;;;5.22;76.56
65384;BME280;51986;52.788;41.368;2022-11-23T02:09:28;97890.50;;;5.13;76.50
65384;BME280;51986;52.788;41.368;2022-11-23T02:11:57;97898.66;;;5.19;76.42
65384;BME280;51986;52.788;41.368;2022-11-23T02:14:24;97896.16;;;5.08;76.84
65384;BME280;51986;52.788;41.368;2022-11-23T02:16:56;97892.72;;;5.15;76.37
65384;BME280;51986;52.788;41.368;2022-11-23T02:19:53;97908.75;;;5.17;76.84
65384;BME280;51986;52.788;41.368;2022-11-23T02:22:58;97886.28;;;5.23;76.21
65384;BME280;51986;52.788;41.368;2022-11-23T02:28:17;97879.69;;;5.11;76.63
65384;BME280;51986;52.788;41.368;2022-11-23T02:30:47;97888.66;;;5.10;76.91
65384;BME280;51986;52.788;41.368;2022-11-23T02:33:15;97901.34;;;5.12;76.83
65384;BME280;51986;52.788;41.368;2022-11-23T02:35:50;97877.47;;;5.06;76.72
65384;BME280;51986;52.788;41.368;2022-11-23T02:38:18;97868.63;;;4.97;77.09
65384;BME280;51986;52.788;41.368;2022-11-23T02:40:46;97868.22;;;5.02;77.49
65384;BME280;51986;52.788;41.368;2022-11-23T02:43:13;97889.03;;;5.09;77.03
65384;BME280;51986;52.788;41.368;2022-11-23T02:45:51;97891.59;;;5.16;76.55
65384;BME280;51986;52.788;41.368;2022-11-23T02:48:18;97890.09;;;5.15;76.62
65384;BME280;51986;52.788;41.368;2022-11-23T02:50:46;97887.75;;;5.24;76.13
65384;BME280;51986;52.788;41.368;2022-11-23T02:53:13;97882.31;;;5.11;77.03
65384;BME280;51986;52.788;41.368;2022-11-23T02:55:40;97879.34;;;5.06;77.46
65384;BME280;51986;52.788;41.368;2022-11-23T02:58:07;97879.91;;;5.24;76.62
65384;BME280;51986;52.788;41.368;2022-11-23T03:00:34;97871.50;;;5.06;78.13
65384;BME280;51986;52.788;41.368;2022-11-23T03:03:03;97872.94;;;5.14;77.28
65384;BME280;51986;52.788;41.368;2022-11-23T03:05:31;97882.66;;;5.13;78.20
65384;BME280;51986;52.788;41.368;2022-11-23T03:08:03;97887.78;;;5.21;78.03
65384;BME280;51986;52.788;41.368;2022-11-23T03:10:31;97856.22;;;5.04;78.49
65384;BME280;51986;52.788;41.368;2022-11-23T03:12:59;97858.41;;;5.09;77.65
65384;BME280;51986;52.788;41.368;2022-11-23T03:15:28;97856.97;;;5.05;78.09
65384;BME280;51986;52.788;41.368;2022-11-23T03:17:56;97861.75;;;5.13;77.97
65384;BME280;51986;52.788;41.368;2022-11-23T03:20:23;97850.03;;;5.25;77.60
65384;BME280;51986;52.788;41.368;2022-11-23T03:22:50;97847.41;;;5.25;77.57
65384;BME280;51986;52.788;41.368;2022-11-23T03:25:19;97840.75;;;5.21;77.65
65384;BME280;51986;52.788;41.368;2022-11-23T03:27:49;97845.91;;;5.28;77.36
65384;BME280;51986;52.788;41.368;2022-11-23T03:30:17;97828.91;;;5.12;77.72
65384;BME280;51986;52.788;41.368;2022-11-23T03:32:44;97824.75;;;5.15;77.45
65384;BME280;51986;52.788;41.368;2022-11-23T03:35:11;97817.66;;;5.15;77.67
65384;BME280;51986;52.788;41.368;2022-11-23T03:37:58;97832.16;;;5.20;76.99
65384;BME280;51986;52.788;41.368;2022-11-23T03:40:25;97828.50;;;5.14;76.91
65384;BME280;51986;52.788;41.368;2022-11-23T03:43:31;97828.28;;;5.35;76.21
65384;BME280;51986;52.788;41.368;2022-11-23T03:45:58;97809.44;;;5.17;77.14
65384;BME280;51986;52.788;41.368;2022-11-23T03:48:25;97814.81;;;5.03;77.13
65384;BME280;51986;52.788;41.368;2022-11-23T03:50:52;97813.06;;;4.92;76.93
65384;BME280;51986;52.788;41.368;2022-11-23T03:53:19;97813.88;;;4.82;77.52
65384;BME280;51986;52.788;41.368;2022-11-23T03:55:46;97821.25;;;4.91;77.25
65384;BME280;51986;52.788;41.368;2022-11-23T03:58:13;97810.47;;;4.89;77.53
65384;BME280;51986;52.788;41.368;2022-11-23T04:00:41;97799.28;;;4.88;77.07
65384;BME280;51986;52.788;41.368;2022-11-23T04:03:11;97807.50;;;4.87;77.16
65384;BME280;51986;52.788;41.368;2022-11-23T04:06:16;97802.63;;;4.89;77.77
65384;BME280;51986;52.788;41.368;2022-11-23T04:09:18;97796.41;;;4.76;77.76
65384;BME280;51986;52.788;41.368;2022-11-23T04:12:09;97789.56;;;4.89;77.26
65384;BME280;51986;52.788;41.368;2022-11-23T04:14:38;97795.25;;;4.80;77.89
65384;BME280;51986;52.788;41.368;2022-11-23T04:17:05;97792.53;;;4.91;77.10
65384;BME280;51986;52.788;41.368;2022-11-23T04:19:32;97771.25;;;4.92;77.19
65384;BME280;51986;52.788;41.368;2022-11-23T04:21:59;97808.44;;;5.04;76.74
65384;BME280;51986;52.788;41.368;2022-11-23T04:24:31;97775.78;;;5.19;76.10
65384;BME280;51986;52.788;41.368;2022-11-23T04:27:01;97791.66;;;5.35;75.20
65384;BME280;51986;52.788;41.368;2022-11-23T04:29:28;97766.06;;;5.19;75.54
65384;BME280;51986;52.788;41.368;2022-11-23T04:31:56;97760.19;;;5.12;76.23
65384;BME280;51986;52.788;41.368;2022-11-23T04:34:23;97794.28;;;5.35;75.19
65384;BME280;51986;52.788;41.368;2022-11-23T04:36:52;97762.94;;;5.32;74.97
65384;BME280;51986;52.788;41.368;2022-11-23T04:39:25;97770.50;;;5.26;75.05
65384;BME280;51986;52.788;41.368;2022-11-23T04:42:15;97778.19;;;5.37;74.94
65384;BME280;51986;52.788;41.368;2022-11-23T04:44:48;97739.31;;;5.08;75.25
65384;BME280;51986;52.788;41.368;2022-11-23T04:47:16;97763.69;;;5.32;75.30
65384;BME280;51986;52.788;41.368;2022-11-23T04:49:45;97760.09;;;5.19;75.31
65384;BME280;51986;52.788;41.368;2022-11-23T04:52:13;97747.41;;;5.21;75.07
65384;BME280;51986;52.788;41.368;2022-11-23T04:54:44;97746.66;;;5.48;74.45
65384;BME280;51986;52.788;41.368;2022-11-23T04:57:11;97748.31;;;5.34;74.63
65384;BME280;51986;52.788;41.368;2022-11-23T04:59:39;97764.00;;;5.34;74.89
65384;BME280;51986;52.788;41.368;2022-11-23T05:02:06;97771.22;;;5.27;74.55
65384;BME280;51986;52.788;41.368;2022-11-23T05:04:56;97755.56;;;5.23;75.23
65384;BME280;51986;52.788;41.368;2022-11-23T05:07:27;97767.69;;;5.10;75.88
65384;BME280;51986;52.788;41.368;2022-11-23T05:09:58;97751.19;;;5.16;74.73
65384;BME280;51986;52.788;41.368;2022-11-23T05:12:25;97756.75;;;5.18;75.43
65384;BME280;51986;52.788;41.368;2022-11-23T05:14:53;97768.75;;;5.16;74.24
65384;BME280;51986;52.788;41.368;2022-11-23T05:17:25;97778.84;;;5.14;74.81
65384;BME280;51986;52.788;41.368;2022-11-23T05:19:54;97770.72;;;5.05;75.40
65384;BME280;51986;52.788;41.368;2022-11-23T05:22:21;97746.56;;;4.97;75.27
65384;BME280;51986;52.788;41.368;2022-11-23T05:24:48;97764.78;;;5.01;75.34
65384;BME280;51986;52.788;41.368;2022-11-23T05:27:19;97754.59;;;5.10;75.06
65384;BME280;51986;52.788;41.368;2022-11-23T05:29:48;97750.47;;;5.12;74.59
65384;BME280;51986;52.788;41.368;2022-11-23T05:32:15;97752.47;;;5.01;75.13
65384;BME280;51986;52.788;41.368;2022-11-23T05:34:43;97757.47;;;4.88;75.35
65384;BME280;51986;52.788;41.368;2022-11-23T05:37:12;97743.59;;;4.95;74.97
65384;BME280;51986;52.788;41.368;2022-11-23T05:39:49;97751.19;;;4.82;75.47
65384;BME280;51986;52.788;41.368;2022-11-23T05:42:24;97756.16;;;4.73;75.68
65384;BME280;51986;52.788;41.368;2022-11-23T05:44:55;97765.16;;;4.69;75.44
65384;BME280;51986;52.788;41.368;2022-11-23T05:47:31;97747.25;;;4.67;75.57
65384;BME280;51986;52.788;41.368;2022-11-23T05:49:58;97724.97;;;4.59;75.71
65384;BME280;51986;52.788;41.368;2022-11-23T05:52:29;97728.34;;;4.56;76.09
65384;BME280;51986;52.788;41.368;2022-11-23T05:54:57;97724.16;;;4.62;76.00
65384;BME280;51986;52.788;41.368;2022-11-23T05:57:24;97748.38;;;4.66;76.01
65384;BME280;51986;52.788;41.368;2022-11-23T05:59:51;97733.09;;;4.64;76.00
65384;BME280;51986;52.788;41.368;2022-11-23T06:02:22;97744.03;;;4.86;75.26
65384;BME280;51986;52.788;41.368;2022-11-23T06:04:54;97732.41;;;4.57;75.95
65384;BME280;51986;52.788;41.368;2022-11-23T06:07:32;97727.75;;;4.75;75.63
65384;BME280;51986;52.788;41.368;2022-11-23T06:10:07;97731.84;;;4.76;76.00
65384;BME280;51986;52.788;41.368;2022-11-23T06:12:37;97719.59;;;4.73;75.95
65384;BME280;51986;52.788;41.368;2022-11-23T06:15:09;97721.91;;;4.64;76.04
65384;BME280;51986;52.788;41.368;2022-11-23T06:17:37;97722.22;;;4.70;75.56
65384;BME280;51986;52.788;41.368;2022-11-23T06:20:09;97721.34;;;4.83;75.49
65384;BME280;51986;52.788;41.368;2022-11-23T06:22:41;97725.22;;;5.02;74.26
65384;BME280;51986;52.788;41.368;2022-11-23T06:25:09;97720.94;;;4.85;74.82
65384;BME280;51986;52.788;41.368;2022-11-23T06:27:39;97713.72;;;4.62;75.29
65384;BME280;51986;52.788;41.368;2022-11-23T06:30:22;97726.41;;;4.63;75.56
65384;BME280;51986;52.788;41.368;2022-11-23T06:32:50;97724.88;;;4.66;75.61
65384;BME280;51986;52.788;41.368;2022-11-23T06:35:20;97724.16;;;4.62;75.92
65384;BME280;51986;52.788;41.368;2022-11-23T06:37:49;97747.34;;;4.56;75.66
65384;BME280;51986;52.788;41.368;2022-11-23T06:40:16;97725.28;;;4.64;75.50
65384;BME280;51986;52.788;41.368;2022-11-23T06:42:43;97711.41;;;4.67;74.83
65384;BME280;51986;52.788;41.368;2022-11-23T06:45:21;97720.00;;;4.68;74.81
65384;BME280;51986;52.788;41.368;2022-11-23T06:47:55;97695.81;;;4.64;75.44
65384;BME280;51986;52.788;41.368;2022-11-23T06:50:22;97709.34;;;4.52;75.90
65384;BME280;51986;52.788;41.368;2022-11-23T06:52:53;97712.97;;;4.61;75.51
65384;BME280;51986;52.788;41.368;2022-11-23T06:55:27;97709.13;;;4.73;74.79
65384;BME280;51986;52.788;41.368;2022-11-23T06:57:55;97696.47;;;5.02;73.44
65384;BME280;51986;52.788;41.368;2022-11-23T07:00:22;97697.72;;;4.90;74.32
65384;BME280;51986;52.788;41.368;2022-11-23T07:02:51;97700.16;;;5.05;73.14
65384;BME280;51986;52.788;41.368;2022-11-23T07:05:21;97698.97;;;5.09;73.06
65384;BME280;51986;52.788;41.368;2022-11-23T07:07:48;97691.59;;;5.04;73.28
65384;BME280;51986;52.788;41.368;2022-11-23T07:10:22;97704.03;;;5.24;73.00
65384;BME280;51986;52.788;41.368;2022-11-23T07:12:53;97710.03;;;4.90;73.82
65384;BME280;51986;52.788;41.368;2022-11-23T07:15:22;97699.28;;;4.84;73.99
65384;BME280;51986;52.788;41.368;2022-11-23T07:17:50;97691.19;;;5.06;73.36
65384;BME280;51986;52.788;41.368;2022-11-23T07:20:20;97608.69;;;4.47;73.38
65384;BME280;51986;52.788;41.368;2022-11-23T07:22:46;97704.25;;;5.06;73.08
65384;BME280;51986;52.788;41.368;2022-11-23T07:25:13;97713.50;;;5.14;73.11
65384;BME280;51986;52.788;41.368;2022-11-23T07:27:41;97722.50;;;5.09;73.14
65384;BME280;51986;52.788;41.368;2022-11-23T07:30:08;97688.34;;;5.24;72.62
65384;BME280;51986;52.788;41.368;2022-11-23T07:32:36;97685.13;;;4.82;73.83
65384;BME280;51986;52.788;41.368;2022-11-23T07:35:03;97718.72;;;4.83;73.44
65384;BME280;51986;52.788;41.368;2022-11-23T07:37:32;97711.56;;;5.18;73.38
65384;BME280;51986;52.788;41.368;2022-11-23T07:40:00;97718.78;;;5.37;72.44
65384;BME280;51986;52.788;41.368;2022-11-23T07:42:30;97706.16;;;5.32;72.35
65384;BME280;51986;52.788;41.368;2022-11-23T07:45:06;97703.94;;;5.31;73.05
65384;BME280;51986;52.788;41.368;2022-11-23T07:47:36;97711.97;;;5.43;71.98
65384;BME280;51986;52.788;41.368;2022-11-23T07:50:05;97697.13;;;5.37;71.98
65384;BME280;51986;52.788;41.368;2022-11-23T07:52:34;97709.56;;;5.29;72.96
65384;BME280;51986;52.788;41.368;2022-11-23T07:55:01;97715.25;;;5.21;73.02
65384;BME280;51986;52.788;41.368;2022-11-23T07:57:28;97698.75;;;5.27;72.44
65384;BME280;51986;52.788;41.368;2022-11-23T07:59:55;97704.50;;;5.15;72.77
65384;BME280;51986;52.788;41.368;2022-11-23T08:02:22;97697.38;;;5.19;72.80
65384;BME280;51986;52.788;41.368;2022-11-23T08:04:49;97711.94;;;5.47;71.71
65384;BME280;51986;52.788;41.368;2022-11-23T08:07:16;97683.66;;;5.38;72.22
65384;BME280;51986;52.788;41.368;2022-11-23T08:09:43;97689.63;;;5.39;71.79
65384;BME280;51986;52.788;41.368;2022-11-23T08:12:10;97701.91;;;5.69;71.25
65384;BME280;51986;52.788;41.368;2022-11-23T08:14:37;97674.38;;;5.84;70.45
65384;BME280;51986;52.788;41.368;2022-11-23T08:17:04;97670.06;;;5.74;70.59
65384;BME280;51986;52.788;41.368;2022-11-23T08:19:31;97692.00;;;5.80;69.99
65384;BME280;51986;52.788;41.368;2022-11-23T08:21:58;97662.28;;;6.14;69.08
65384;BME280;51986;52.788;41.368;2022-11-23T08:24:25;97677.59;;;6.15;69.13
65384;BME280;51986;52.788;41.368;2022-11-23T08:26:52;97681.13;;;6.29;68.72
65384;BME280;51986;52.788;41.368;2022-11-23T08:29:19;97669.22;;;6.24;68.41
65384;BME280;51986;52.788;41.368;2022-11-23T08:31:46;97671.78;;;6.28;68.55
65384;BME280;51986;52.788;41.368;2022-11-23T08:34:13;97668.28;;;6.34;68.51
65384;BME280;51986;52.788;41.368;2022-11-23T08:36:40;97666.84;;;6.10;69.26
65384;BME280;51986;52.788;41.368;2022-11-23T08:39:07;97664.81;;;5.98;69.21
65384;BME280;51986;52.788;41.368;2022-11-23T08:41:33;97655.59;;;6.33;69.12
65384;BME280;51986;52.788;41.368;2022-11-23T08:44:00;97663.25;;;6.63;68.25
65384;BME280;51986;52.788;41.368;2022-11-23T08:46:27;97662.78;;;6.68;67.84
65384;BME280;51986;52.788;41.368;2022-11-23T08:48:54;97633.03;;;6.39;68.25
65384;BME280;51986;52.788;41.368;2022-11-23T08:51:21;97669.03;;;6.55;68.31
65384;BME280;51986;52.788;41.368;2022-11-23T08:53:49;97650.09;;;6.67;67.60
65384;BME280;51986;52.788;41.368;2022-11-23T08:56:16;97653.44;;;6.87;67.05
65384;BME280;51986;52.788;41.368;2022-11-23T08:58:43;97644.88;;;6.83;66.46
65384;BME280;51986;52.788;41.368;2022-11-23T09:01:14;97648.63;;;6.66;67.62
65384;BME280;51986;52.788;41.368;2022-11-23T09:03:42;97656.25;;;6.96;66.88
65384;BME280;51986;52.788;41.368;2022-11-23T09:06:10;97661.69;;;7.06;66.29
65384;BME280;51986;52.788;41.368;2022-11-23T09:08:38;97665.09;;;6.86;66.30
65384;BME280;51986;52.788;41.368;2022-11-23T09:11:06;97662.03;;;7.08;66.21
65384;BME280;51986;52.788;41.368;2022-11-23T09:13:35;97659.72;;;6.93;66.07
65384;BME280;51986;52.788;41.368;2022-11-23T09:16:03;97656.00;;;6.91;66.46
65384;BME280;51986;52.788;41.368;2022-11-23T09:18:31;97655.47;;;6.80;66.57
65384;BME280;51986;52.788;41.368;2022-11-23T09:21:03;97659.22;;;6.79;66.41
65384;BME280;51986;52.788;41.368;2022-11-23T09:23:31;97663.25;;;6.63;67.45
65384;BME280;51986;52.788;41.368;2022-11-23T09:25:59;97679.22;;;6.69;67.13
65384;BME280;51986;52.788;41.368;2022-11-23T09:28:27;97680.81;;;6.46;67.72
65384;BME280;51986;52.788;41.368;2022-11-23T09:30:55;97660.59;;;6.47;68.16
65384;BME280;51986;52.788;41.368;2022-11-23T09:33:22;97659.16;;;6.42;68.46
65384;BME280;51986;52.788;41.368;2022-11-23T09:36:02;97700.19;;;6.69;67.80
65384;BME280;51986;52.788;41.368;2022-11-23T09:38:30;97652.72;;;6.67;67.69
65384;BME280;51986;52.788;41.368;2022-11-23T09:47:23;97708.88;;;7.06;67.79
65384;BME280;51986;52.788;41.368;2022-11-23T09:50:11;97698.38;;;7.06;66.93
65384;BME280;51986;52.788;41.368;2022-11-23T09:52:43;97691.50;;;7.12;67.02
65384;BME280;51986;52.788;41.368;2022-11-23T09:55:18;97700.66;;;7.23;66.82
65384;BME280;51986;52.788;41.368;2022-11-23T09:57:48;97686.56;;;7.17;66.87
65384;BME280;51986;52.788;41.368;2022-11-23T10:00:22;97691.69;;;7.05;66.53
65384;BME280;51986;52.788;41.368;2022-11-23T10:02:49;97658.38;;;6.65;67.84
65384;BME280;51986;52.788;41.368;2022-11-23T10:05:20;97709.41;;;6.97;67.15
65384;BME280;51986;52.788;41.368;2022-11-23T10:08:34;97700.53;;;7.11;67.12
65384;BME280;51986;52.788;41.368;2022-11-23T10:11:18;97706.84;;;7.13;66.65
65384;BME280;51986;52.788;41.368;2022-11-23T10:14:14;97713.22;;;7.32;66.96
65384;BME280;51986;52.788;41.368;2022-11-23T10:25:18;97719.94;;;7.33;65.82
65384;BME280;51986;52.788;41.368;2022-11-23T10:27:48;97706.38;;;7.18;66.35
65384;BME280;51986;52.788;41.368;2022-11-23T10:30:17;97709.19;;;7.28;66.21
65384;BME280;51986;52.788;41.368;2022-11-23T10:33:01;97711.72;;;7.31;66.09
65384;BME280;51986;52.788;41.368;2022-11-23T10:35:32;97722.25;;;7.47;65.58
65384;BME280;51986;52.788;41.368;2022-11-23T10:38:13;97718.97;;;7.60;65.53
65384;BME280;51986;52.788;41.368;2022-11-23T10:46:24;97691.66;;;7.57;65.20
65384;BME280;51986;52.788;41.368;2022-11-23T10:48:52;97695.03;;;7.58;66.36
65384;BME280;51986;52.788;41.368;2022-11-23T10:51:32;97715.03;;;7.52;66.22
65384;BME280;51986;52.788;41.368;2022-11-23T10:54:05;97713.88;;;7.53;65.37
65384;BME280;51986;52.788;41.368;2022-11-23T10:56:48;97701.50;;;7.53;65.46
65384;BME280;51986;52.788;41.368;2022-11-23T10:59:36;97712.72;;;7.54;65.48
65384;BME280;51986;52.788;41.368;2022-11-23T11:04:31;97721.88;;;7.29;64.96
65384;BME280;51986;52.788;41.368;2022-11-23T11:07:18;97719.50;;;7.18;65.61
65384;BME280;51986;52.788;41.368;2022-11-23T11:10:04;97743.31;;;7.08;65.95
65384;BME280;51986;52.788;41.368;2022-11-23T11:12:33;97726.28;;;7.16;65.79
65384;BME280;51986;52.788;41.368;2022-11-23T11:15:18;97748.66;;;7.20;65.64
65384;BME280;51986;52.788;41.368;2022-11-23T11:17:54;97735.97;;;7.19;65.30
65384;BME280;51986;52.788;41.368;2022-11-23T11:20:33;97719.16;;;6.96;65.52
65384;BME280;51986;52.788;41.368;2022-11-23T11:23:16;97732.69;;;6.95;66.07
65384;BME280;51986;52.788;41.368;2022-11-23T11:25:44;97746.22;;;6.93;65.47
65384;BME280;51986;52.788;41.368;2022-11-23T11:28:37;97754.81;;;6.94;66.16
65384;BME280;51986;52.788;41.368;2022-11-23T11:31:29;97763.06;;;6.92;66.43
65384;BME280;51986;52.788;41.368;2022-11-23T11:34:24;97741.53;;;6.81;66.06
65384;BME280;51986;52.788;41.368;2022-11-23T11:37:03;97761.41;;;6.79;66.46
65384;BME280;51986;52.788;41.368;2022-11-23T11:40:01;97774.69;;;6.91;66.11
65384;BME280;51986;52.788;41.368;2022-11-23T11:42:40;97770.94;;;6.92;65.51
65384;BME280;51986;52.788;41.368;2022-11-23T11:45:16;97785.34;;;6.81;65.84
65384;BME280;51986;52.788;41.368;2022-11-23T11:47:52;97799.19;;;6.81;65.98
65384;BME280;51986;52.788;41.368;2022-11-23T11:50:25;97793.28;;;6.77;65.80
65384;BME280;51986;52.788;41.368;2022-11-23T11:53:09;97787.63;;;6.79;65.67
65384;BME280;51986;52.788;41.368;2022-11-23T11:55:49;97775.91;;;6.63;65.98
65384;BME280;51986;52.788;41.368;2022-11-23T11:58:19;97783.78;;;6.83;65.98
65384;BME280;51986;52.788;41.368;2022-11-23T12:00:48;97777.78;;;6.86;65.51
65384;BME280;51986;52.788;41.368;2022-11-23T12:03:25;97780.66;;;6.92;65.85
65384;BME280;51986;52.788;41.368;2022-11-23T12:06:01;97800.91;;;6.91;65.19
65384;BME280;51986;52.788;41.368;2022-11-23T12:11:11;97787.13;;;6.87;65.14
65384;BME280;51986;52.788;41.368;2022-11-23T12:13:41;97797.97;;;6.89;65.68
65384;BME280;51986;52.788;41.368;2022-11-23T12:30:15;97827.06;;;6.71;65.90
65384;BME280;51986;52.788;41.368;2022-11-23T12:33:04;97839.06;;;6.69;65.83
65384;BME280;51986;52.788;41.368;2022-11-23T12:38:35;97846.44;;;6.54;65.74
65384;BME280;51986;52.788;41.368;2022-11-23T12:41:38;97836.88;;;6.44;65.98
65384;BME280;51986;52.788;41.368;2022-11-23T12:44:17;97856.56;;;6.52;66.00
65384;BME280;51986;52.788;41.368;2022-11-23T12:49:32;97882.13;;;6.44;66.10
65384;BME280;51986;52.788;41.368;2022-11-23T12:52:31;97886.31;;;6.42;65.81
65384;BME280;51986;52.788;41.368;2022-11-23T12:55:18;97890.59;;;6.29;66.21
65384;BME280;51986;52.788;41.368;2022-11-23T12:58:00;97896.16;;;6.07;67.01
65384;BME280;51986;52.788;41.368;2022-11-23T13:00:35;97891.41;;;5.99;67.05
65384;BME280;51986;52.788;41.368;2022-11-23T13:19:17;97911.19;;;6.00;66.79
65384;BME280;51986;52.788;41.368;2022-11-23T13:21:47;97915.00;;;5.95;67.05
65384;BME280;51986;52.788;41.368;2022-11-23T13:24:27;97938.47;;;6.02;67.17
65384;BME280;51986;52.788;41.368;2022-11-23T13:40:24;97941.50;;;5.97;66.25
65384;BME280;51986;52.788;41.368;2022-11-23T13:42:53;97944.69;;;5.81;66.60
65384;BME280;51986;52.788;41.368;2022-11-23T13:50:31;97940.75;;;5.96;66.66
65384;BME280;51986;52.788;41.368;2022-11-23T13:52:59;97963.88;;;6.02;66.54
65384;BME280;51986;52.788;41.368;2022-11-23T13:55:35;97949.34;;;5.97;66.34
65384;BME280;51986;52.788;41.368;2022-11-23T14:00:51;97950.63;;;5.85;66.45
65384;BME280;51986;52.788;41.368;2022-11-23T14:11:38;97979.28;;;5.62;67.12
65384;BME280;51986;52.788;41.368;2022-11-23T14:14:16;97980.59;;;5.43;67.60
65384;BME280;51986;52.788;41.368;2022-11-23T14:33:43;98012.00;;;4.91;69.15
65384;BME280;51986;52.788;41.368;2022-11-23T14:41:32;98012.31;;;4.45;70.58
65384;BME280;51986;52.788;41.368;2022-11-23T14:44:02;98035.75;;;4.48;70.70
65384;BME280;51986;52.788;41.368;2022-11-23T14:46:29;98022.69;;;4.52;70.39
65384;BME280;51986;52.788;41.368;2022-11-23T14:49:11;98049.56;;;4.49;70.63
65384;BME280;51986;52.788;41.368;2022-11-23T14:51:42;98035.47;;;4.28;71.15
65384;BME280;51986;52.788;41.368;2022-11-23T14:54:10;98049.28;;;4.18;71.28
65384;BME280;51986;52.788;41.368;2022-11-23T14:56:41;98047.47;;;4.01;71.98
65384;BME280;51986;52.788;41.368;2022-11-23T15:05:17;98068.34;;;4.08;71.64
65384;BME280;51986;52.788;41.368;2022-11-23T15:07:56;98091.50;;;3.92;71.97
65384;BME280;51986;52.788;41.368;2022-11-23T15:13:18;98083.31;;;3.75;72.31
65384;BME280;51986;52.788;41.368;2022-11-23T15:15:46;98093.00;;;3.43;73.13
65384;BME280;51986;52.788;41.368;2022-11-23T15:18:32;98089.28;;;3.47;73.45
65384;BME280;51986;52.788;41.368;2022-11-23T15:21:03;98106.03;;;3.43;73.33
65384;BME280;51986;52.788;41.368;2022-11-23T15:23:35;98110.13;;;3.36;73.25
65384;BME280;51986;52.788;41.368;2022-11-23T15:26:22;98105.69;;;3.51;73.40
65384;BME280;51986;52.788;41.368;2022-11-23T15:29:30;98100.09;;;3.60;72.73
65384;BME280;51986;52.788;41.368;2022-11-23T15:31:58;98131.75;;;3.48;73.17